createdAt,value
2023-04-09T00:02:03.188Z,99923.44
2023-04-09T00:04:29.990Z,99914.84
2023-04-09T00:06:56.838Z,99910.22
2023-04-09T00:09:23.591Z,99920.06
2023-04-09T00:11:50.383Z,99914.75
2023-04-09T00:14:17.343Z,99915.47
2023-04-09T00:16:44.219Z,99904.38
2023-04-09T00:19:12.031Z,99894.53
2023-04-09T00:21:38.799Z,99908.78
2023-04-09T00:24:05.968Z,99916.31
2023-04-09T00:26:32.675Z,99915.03
2023-04-09T00:28:59.410Z,99908.94
2023-04-09T00:31:26.439Z,99919.88
2023-04-09T00:33:53.221Z,99916.84
2023-04-09T00:36:20.031Z,99905.00
2023-04-09T00:38:48.320Z,99907.38
2023-04-09T00:41:15.044Z,99907.09
2023-04-09T00:43:41.798Z,99910.50
2023-04-09T00:46:08.781Z,99918.56
2023-04-09T00:48:35.676Z,99908.53
2023-04-09T00:51:02.489Z,99913.31
2023-04-09T00:53:29.319Z,99911.03
2023-04-09T00:55:56.115Z,99908.53
2023-04-09T00:58:22.986Z,99909.56
2023-04-09T01:03:24.878Z,99912.06
2023-04-09T01:06:03.695Z,99904.44
2023-04-09T01:08:49.748Z,99912.56
2023-04-09T01:11:35.392Z,99909.88
2023-04-09T01:14:09.459Z,99906.66
2023-04-09T01:16:37.469Z,99915.38
2023-04-09T01:19:11.548Z,99909.19
2023-04-09T01:21:38.889Z,99903.28
2023-04-09T01:24:31.336Z,99907.38
2023-04-09T01:27:06.936Z,99902.28
2023-04-09T01:29:42.286Z,99910.56
2023-04-09T01:32:09.912Z,99903.94
2023-04-09T01:34:37.099Z,99903.72
2023-04-09T01:37:04.297Z,99898.03
2023-04-09T01:39:31.123Z,99895.56
2023-04-09T01:41:58.339Z,99904.75
2023-04-09T01:44:26.453Z,99901.28
2023-04-09T01:46:54.734Z,99893.78
2023-04-09T01:49:22.409Z,99902.47
2023-04-09T01:51:49.397Z,99905.38
2023-04-09T01:54:17.255Z,99901.28
2023-04-09T01:56:45.596Z,99900.38
2023-04-09T01:59:12.535Z,99903.50
2023-04-09T02:01:54.180Z,99895.44
2023-04-09T02:04:41.930Z,99900.56
2023-04-09T02:07:18.182Z,99902.59
2023-04-09T02:09:45.858Z,99905.59
2023-04-09T02:12:14.124Z,99907.56
2023-04-09T02:14:41.754Z,99909.75
2023-04-09T02:17:08.557Z,99908.25
2023-04-09T02:19:46.533Z,99909.53
2023-04-09T02:22:13.591Z,99903.06
2023-04-09T02:24:40.994Z,99907.16
2023-04-09T02:27:08.060Z,99902.97
2023-04-09T02:29:34.944Z,99908.00
2023-04-09T02:32:01.776Z,99899.69
2023-04-09T02:34:28.558Z,99917.06
2023-04-09T02:36:55.454Z,99908.06
2023-04-09T02:39:22.157Z,99911.84
2023-04-09T02:41:48.921Z,99909.75
2023-04-09T02:44:15.719Z,99904.06
2023-04-09T02:46:42.811Z,99904.28
2023-04-09T02:49:09.592Z,99900.66
2023-04-09T02:51:36.373Z,99908.81
2023-04-09T02:54:04.060Z,99899.50
2023-04-09T02:56:31.012Z,99897.22
2023-04-09T02:58:57.715Z,99897.50
2023-04-09T03:01:24.462Z,99894.94
2023-04-09T03:03:51.417Z,99889.97
2023-04-09T03:06:18.762Z,99887.28
2023-04-09T03:08:45.759Z,99882.56
2023-04-09T03:11:12.505Z,99889.16
2023-04-09T03:13:42.425Z,99882.25
2023-04-09T03:16:10.594Z,99880.47
2023-04-09T03:18:37.630Z,99885.63
2023-04-09T03:21:08.172Z,99876.50
2023-04-09T03:23:35.455Z,99877.31
2023-04-09T03:26:06.573Z,99881.31
2023-04-09T03:28:33.524Z,99880.59
2023-04-09T03:31:00.373Z,99885.78
2023-04-09T03:33:27.264Z,99881.84
2023-04-09T03:35:54.156Z,99882.13
2023-04-09T03:38:20.940Z,99882.25
2023-04-09T03:40:47.746Z,99880.13
2023-04-09T03:43:14.564Z,99882.13
2023-04-09T03:45:41.381Z,99881.06
2023-04-09T03:48:08.078Z,99882.75
2023-04-09T03:50:41.601Z,99887.97
2023-04-09T03:53:08.317Z,99889.66
2023-04-09T03:55:35.158Z,99886.53
2023-04-09T03:58:01.989Z,99873.88
2023-04-09T04:00:28.721Z,99892.69
2023-04-09T04:02:55.786Z,99886.03
2023-04-09T04:05:28.332Z,99885.69
2023-04-09T04:07:55.027Z,99891.81
2023-04-09T04:10:21.742Z,99894.38
2023-04-09T04:12:48.485Z,99888.41
2023-04-09T04:15:15.492Z,99895.22
2023-04-09T04:17:42.460Z,99895.94
2023-04-09T04:20:10.507Z,99893.19
2023-04-09T04:22:37.282Z,99905.75
2023-04-09T04:25:04.875Z,99892.47
2023-04-09T04:27:31.708Z,99898.97
2023-04-09T04:30:02.742Z,99896.97
2023-04-09T04:32:29.608Z,99898.22
2023-04-09T04:34:56.393Z,99898.56
2023-04-09T04:37:23.092Z,99902.94
2023-04-09T04:39:49.990Z,99905.66
2023-04-09T04:42:17.293Z,99902.13
2023-04-09T04:44:44.849Z,99904.00
2023-04-09T04:47:11.554Z,99907.75
2023-04-09T04:49:38.295Z,99907.63
2023-04-09T04:52:05.943Z,99911.50
2023-04-09T04:54:33.927Z,99907.63
2023-04-09T04:57:01.488Z,99912.13
2023-04-09T04:59:28.236Z,99908.56
2023-04-09T05:01:55.156Z,99913.69
2023-04-09T05:04:21.990Z,99912.84
2023-04-09T05:06:49.051Z,99912.53
2023-04-09T05:09:16.015Z,99910.47
2023-04-09T05:11:42.938Z,99917.53
2023-04-09T05:14:09.682Z,99924.25
2023-04-09T05:16:36.524Z,99921.72
2023-04-09T05:19:03.246Z,99929.75
2023-04-09T05:21:30.072Z,99930.34
2023-04-09T05:23:57.175Z,99924.25
2023-04-09T05:26:24.216Z,99924.06
2023-04-09T05:28:51.731Z,99937.28
2023-04-09T05:31:18.755Z,99931.41
2023-04-09T05:33:45.765Z,99926.31
2023-04-09T05:36:17.419Z,99928.94
2023-04-09T05:38:45.214Z,99928.25
2023-04-09T05:41:11.945Z,99925.97
2023-04-09T05:43:39.237Z,99930.16
2023-04-09T05:46:06.039Z,99932.38
2023-04-09T05:48:35.741Z,99932.28
2023-04-09T05:51:02.803Z,99941.59
2023-04-09T05:53:29.842Z,99942.41
2023-04-09T05:55:56.639Z,99939.78
2023-04-09T05:58:23.582Z,99935.44
2023-04-09T06:00:52.045Z,99936.78
2023-04-09T06:03:19.194Z,99936.06
2023-04-09T06:05:46.942Z,99938.44
2023-04-09T06:08:14.437Z,99938.34
2023-04-09T06:10:41.658Z,99942.56
2023-04-09T06:13:08.493Z,99940.13
2023-04-09T06:15:35.314Z,99933.00
2023-04-09T06:18:02.374Z,99939.78
2023-04-09T06:20:29.180Z,99936.00
2023-04-09T06:22:56.321Z,99931.28
2023-04-09T06:25:23.460Z,99938.72
2023-04-09T06:27:50.786Z,99941.56
2023-04-09T06:30:17.589Z,99937.91
2023-04-09T06:32:54.257Z,99936.69
2023-04-09T06:35:22.166Z,99943.13
2023-04-09T06:37:49.215Z,99943.00
2023-04-09T06:40:15.915Z,99939.88
2023-04-09T06:42:42.861Z,99936.91
2023-04-09T06:45:10.483Z,99936.91
2023-04-09T06:47:37.445Z,99932.09
2023-04-09T06:50:04.716Z,99944.22
2023-04-09T06:52:31.579Z,99945.34
2023-04-09T06:54:58.648Z,99943.72
2023-04-09T06:57:26.605Z,99938.41
2023-04-09T06:59:53.352Z,99938.59
2023-04-09T07:02:20.243Z,99945.47
2023-04-09T07:04:47.953Z,99947.72
2023-04-09T07:07:14.950Z,99947.19
2023-04-09T07:09:42.997Z,99943.41
2023-04-09T07:12:09.724Z,99951.25
2023-04-09T07:14:36.459Z,99951.78
2023-04-09T07:17:03.339Z,99955.56
2023-04-09T07:19:30.069Z,99958.72
2023-04-09T07:21:56.954Z,99957.13
2023-04-09T07:24:23.684Z,99957.81
2023-04-09T07:26:52.075Z,99947.91
2023-04-09T07:29:21.079Z,99961.81
2023-04-09T07:31:47.985Z,99965.28
2023-04-09T07:34:15.040Z,99963.59
2023-04-09T07:36:43.088Z,99957.13
2023-04-09T07:39:09.944Z,99959.66
2023-04-09T07:41:37.866Z,99964.22
2023-04-09T07:44:06.711Z,99968.22
2023-04-09T07:46:33.580Z,99968.56
2023-04-09T07:49:01.010Z,99965.09
2023-04-09T07:51:28.055Z,99967.81
2023-04-09T07:53:55.434Z,99965.91
2023-04-09T07:56:22.723Z,99970.75
2023-04-09T07:58:49.789Z,99977.00
2023-04-09T08:01:17.004Z,99972.38
2023-04-09T08:03:44.036Z,99972.78
2023-04-09T08:06:11.281Z,99977.44
2023-04-09T08:08:38.396Z,99979.34
2023-04-09T08:11:05.302Z,99970.06
2023-04-09T08:13:32.014Z,99969.19
2023-04-09T08:16:02.478Z,99974.63
2023-04-09T08:18:29.884Z,99973.13
2023-04-09T08:20:57.943Z,99971.25
2023-04-09T08:23:24.762Z,99977.19
2023-04-09T08:25:51.591Z,99971.34
2023-04-09T08:28:18.660Z,99974.06
2023-04-09T08:30:45.789Z,99979.69
2023-04-09T08:33:12.553Z,99979.38
2023-04-09T08:35:40.903Z,99973.63
2023-04-09T08:38:07.556Z,99973.91
2023-04-09T08:40:37.403Z,99977.38
2023-04-09T08:43:06.533Z,99980.63
2023-04-09T08:45:33.366Z,99976.22
2023-04-09T08:48:00.961Z,99975.47
2023-04-09T08:50:28.059Z,99976.53
2023-04-09T08:52:55.002Z,99976.28
2023-04-09T08:55:22.543Z,99980.72
2023-04-09T08:57:49.204Z,99984.91
2023-04-09T09:00:16.179Z,99980.81
2023-04-09T09:03:08.815Z,99972.44
2023-04-09T09:05:37.372Z,99986.06
2023-04-09T09:08:04.517Z,99987.97
2023-04-09T09:10:41.777Z,99987.44
2023-04-09T09:13:17.630Z,99980.88
2023-04-09T09:15:44.632Z,99975.31
2023-04-09T09:18:11.420Z,99972.22
2023-04-09T09:20:38.543Z,99977.03
2023-04-09T09:23:05.630Z,99977.47
2023-04-09T09:25:38.355Z,99974.19
2023-04-09T09:28:12.492Z,99968.75
2023-04-09T09:30:40.515Z,99968.19
2023-04-09T09:33:11.497Z,99967.47
2023-04-09T09:35:52.701Z,99970.69
2023-04-09T09:38:19.487Z,99967.19
2023-04-09T09:40:46.866Z,99966.19
2023-04-09T09:43:14.743Z,99961.19
2023-04-09T09:45:42.203Z,99956.28
2023-04-09T09:48:11.379Z,99953.69
2023-04-09T09:50:39.601Z,99961.31
2023-04-09T09:53:07.608Z,99960.47
2023-04-09T09:55:37.101Z,99954.13
2023-04-09T09:58:12.368Z,99962.50
2023-04-09T10:00:40.798Z,99964.41
2023-04-09T10:03:21.663Z,99964.69
2023-04-09T10:05:49.222Z,99960.38
2023-04-09T10:08:16.533Z,99954.34
2023-04-09T10:10:43.781Z,99964.41
2023-04-09T10:13:16.354Z,99960.38
2023-04-09T10:15:44.963Z,99952.31
2023-04-09T10:18:11.956Z,99957.88
2023-04-09T10:20:57.549Z,99948.19
2023-04-09T10:23:42.734Z,99953.75
2023-04-09T10:26:09.549Z,99954.66
2023-04-09T10:28:38.588Z,99953.94
2023-04-09T10:31:09.135Z,99943.09
2023-04-09T10:33:39.210Z,99944.44
2023-04-09T10:36:13.229Z,99945.09
2023-04-09T10:38:41.627Z,99943.72
2023-04-09T10:41:10.680Z,99945.63
2023-04-09T10:43:37.731Z,99938.78
2023-04-09T10:46:05.656Z,99938.81
2023-04-09T10:48:35.631Z,99936.00
2023-04-09T10:51:05.908Z,99936.06
2023-04-09T10:53:32.836Z,99931.25
2023-04-09T10:55:59.563Z,99928.31
2023-04-09T10:58:26.271Z,99926.94
2023-04-09T11:00:54.557Z,99933.81
2023-04-09T11:03:24.167Z,99931.19
2023-04-09T11:06:02.437Z,99926.31
2023-04-09T11:08:30.934Z,99932.44
2023-04-09T11:11:02.293Z,99917.56
2023-04-09T11:13:31.064Z,99922.16
2023-04-09T11:15:58.665Z,99916.75
2023-04-09T11:18:28.197Z,99912.44
2023-04-09T11:20:56.376Z,99910.22
2023-04-09T11:23:24.334Z,99916.44
2023-04-09T11:25:51.972Z,99910.06
2023-04-09T11:28:19.514Z,99904.19
2023-04-09T11:30:49.869Z,99902.13
2023-04-09T11:33:19.613Z,99906.28
2023-04-09T11:35:47.261Z,99894.22
2023-04-09T11:38:14.113Z,99890.34
2023-04-09T11:40:48.868Z,99895.91
2023-04-09T11:43:17.041Z,99897.31
2023-04-09T11:45:44.529Z,99893.38
2023-04-09T11:48:12.124Z,99896.25
2023-04-09T11:50:38.899Z,99886.28
2023-04-09T11:53:21.634Z,99885.44
2023-04-09T11:55:51.366Z,99893.34
2023-04-09T11:58:18.647Z,99895.59
2023-04-09T12:00:46.138Z,99890.06
2023-04-09T12:03:13.861Z,99894.44
2023-04-09T12:05:49.242Z,99893.41
2023-04-09T12:08:18.785Z,99884.84
2023-04-09T12:10:46.632Z,99887.44
2023-04-09T12:13:13.965Z,99876.44
2023-04-09T12:15:43.751Z,99887.94
2023-04-09T12:18:12.610Z,99883.16
2023-04-09T12:20:41.049Z,99882.78
2023-04-09T12:23:08.480Z,99872.38
2023-04-09T12:25:37.769Z,99875.31
2023-04-09T12:28:06.353Z,99872.34
2023-04-09T12:30:33.952Z,99878.72
2023-04-09T12:33:01.012Z,99877.94
2023-04-09T12:35:28.621Z,99865.00
2023-04-09T12:37:55.856Z,99868.88
2023-04-09T12:40:22.791Z,99874.25
2023-04-09T12:42:49.622Z,99866.06
2023-04-09T12:45:18.131Z,99867.34
2023-04-09T12:47:45.210Z,99859.31
2023-04-09T12:50:13.312Z,99856.69
2023-04-09T12:52:40.465Z,99851.63
2023-04-09T12:55:07.841Z,99847.22
2023-04-09T12:57:34.744Z,99853.28
2023-04-09T13:00:01.478Z,99844.75
2023-04-09T13:02:28.306Z,99853.00
2023-04-09T13:04:55.124Z,99845.41
2023-04-09T13:07:22.970Z,99845.66
2023-04-09T13:09:52.892Z,99833.84
2023-04-09T13:12:21.791Z,99838.34
2023-04-09T13:14:49.000Z,99824.50
2023-04-09T13:17:16.456Z,99831.03
2023-04-09T13:19:43.318Z,99819.31
2023-04-09T13:22:10.726Z,99817.28
2023-04-09T13:24:38.881Z,99826.38
2023-04-09T13:27:06.834Z,99814.06
2023-04-09T13:29:36.673Z,99803.16
2023-04-09T13:32:11.413Z,99807.88
2023-04-09T13:34:39.792Z,99805.72
2023-04-09T13:37:06.891Z,99811.03
2023-04-09T13:39:33.683Z,99804.16
2023-04-09T13:42:03.631Z,99803.75
2023-04-09T13:44:35.665Z,99791.84
2023-04-09T13:47:02.992Z,99798.06
2023-04-09T13:49:31.235Z,99789.47
2023-04-09T13:51:58.224Z,99784.03
2023-04-09T13:54:25.791Z,99789.97
2023-04-09T13:56:53.432Z,99784.34
2023-04-09T13:59:20.238Z,99786.34
2023-04-09T14:01:47.281Z,99786.34
2023-04-09T14:04:14.241Z,99782.28
2023-04-09T14:06:42.904Z,99779.25
2023-04-09T14:09:10.758Z,99774.38
2023-04-09T14:11:37.921Z,99771.28
2023-04-09T14:14:04.886Z,99777.19
2023-04-09T14:16:31.957Z,99776.03
2023-04-09T14:18:59.281Z,99778.41
2023-04-09T14:21:27.312Z,99777.38
2023-04-09T14:23:54.401Z,99775.31
2023-04-09T14:26:22.934Z,99770.16
2023-04-09T14:28:52.057Z,99773.28
2023-04-09T14:31:21.788Z,99771.19
2023-04-09T14:33:49.089Z,99781.06
2023-04-09T14:36:16.999Z,99777.41
2023-04-09T14:38:44.582Z,99766.06
2023-04-09T14:41:11.533Z,99766.06
2023-04-09T14:43:38.558Z,99771.97
2023-04-09T14:46:07.870Z,99774.25
2023-04-09T14:48:35.391Z,99772.16
2023-04-09T14:51:02.910Z,99765.81
2023-04-09T14:53:29.978Z,99764.66
2023-04-09T14:55:57.674Z,99772.78
2023-04-09T14:58:24.774Z,99763.72
2023-04-09T15:00:51.532Z,99764.00
2023-04-09T15:03:18.428Z,99764.19
2023-04-09T15:05:46.584Z,99763.56
2023-04-09T15:08:15.155Z,99768.56
2023-04-09T15:10:43.669Z,99773.03
2023-04-09T15:13:11.352Z,99767.13
2023-04-09T15:15:41.392Z,99762.03
2023-04-09T15:18:08.595Z,99753.09
2023-04-09T15:20:39.140Z,99749.47
2023-04-09T15:23:06.209Z,99753.88
2023-04-09T15:25:33.892Z,99755.94
2023-04-09T15:28:00.892Z,99756.63
2023-04-09T15:30:28.329Z,99756.63
2023-04-09T15:32:55.823Z,99762.84
2023-04-09T15:35:30.274Z,99754.69
2023-04-09T15:38:00.062Z,99757.22
2023-04-09T15:40:29.449Z,99761.84
2023-04-09T15:42:56.409Z,99759.22
2023-04-09T15:45:23.613Z,99762.69
2023-04-09T15:47:51.341Z,99762.88
2023-04-09T15:50:18.392Z,99763.50
2023-04-09T15:52:45.352Z,99768.19
2023-04-09T15:55:12.915Z,99768.81
2023-04-09T15:57:40.214Z,99760.13
2023-04-09T16:00:12.797Z,99763.59
2023-04-09T16:02:56.752Z,99762.44
2023-04-09T16:05:27.091Z,99762.72
2023-04-09T16:07:54.056Z,99762.09
2023-04-09T16:10:21.314Z,99758.16
2023-04-09T16:12:49.160Z,99762.63
2023-04-09T16:15:19.634Z,99755.94
2023-04-09T16:17:47.738Z,99750.47
2023-04-09T16:20:15.187Z,99756.97
2023-04-09T16:22:42.428Z,99754.16
2023-04-09T16:25:10.014Z,99755.59
2023-04-09T16:27:37.016Z,99755.78
2023-04-09T16:30:07.974Z,99755.97
2023-04-09T16:32:34.744Z,99748.03
2023-04-09T16:35:03.841Z,99743.13
2023-04-09T16:37:34.679Z,99744.88
2023-04-09T16:40:02.887Z,99745.75
2023-04-09T16:42:33.441Z,99746.72
2023-04-09T16:45:15.060Z,99743.34
2023-04-09T16:47:47.970Z,99740.13
2023-04-09T16:50:21.786Z,99743.31
2023-04-09T16:52:49.940Z,99735.88
2023-04-09T16:55:26.037Z,99734.50
2023-04-09T16:57:58.507Z,99737.13
2023-04-09T17:00:36.996Z,99731.69
2023-04-09T17:03:14.690Z,99732.00
2023-04-09T17:06:00.155Z,99728.97
2023-04-09T17:08:28.215Z,99733.34
2023-04-09T17:11:02.537Z,99723.22
2023-04-09T17:13:36.871Z,99724.13
2023-04-09T17:16:06.445Z,99724.28
2023-04-09T17:18:39.902Z,99729.81
2023-04-09T17:21:11.928Z,99723.16
2023-04-09T17:23:44.900Z,99727.75
2023-04-09T17:26:11.897Z,99725.53
2023-04-09T17:28:44.514Z,99732.66
2023-04-09T17:31:14.322Z,99741.88
2023-04-09T17:33:56.553Z,99741.47
2023-04-09T17:36:29.323Z,99739.94
2023-04-09T17:38:57.248Z,99741.50
2023-04-09T17:41:32.274Z,99748.28
2023-04-09T17:44:02.082Z,99751.28
2023-04-09T17:46:32.103Z,99748.25
2023-04-09T17:49:00.209Z,99750.06
2023-04-09T17:51:27.476Z,99753.69
2023-04-09T17:53:54.743Z,99752.06
2023-04-09T17:56:28.430Z,99753.88
2023-04-09T17:58:58.335Z,99751.38
2023-04-09T18:01:27.353Z,99752.22
2023-04-09T18:03:56.271Z,99753.38
2023-04-09T18:06:23.473Z,99759.63
2023-04-09T18:08:52.903Z,99759.88
2023-04-09T18:11:20.584Z,99767.13
2023-04-09T18:13:51.545Z,99765.91
2023-04-09T18:16:21.047Z,99764.38
2023-04-09T18:18:48.417Z,99778.28
2023-04-09T18:21:16.702Z,99777.75
2023-04-09T18:23:44.286Z,99782.75
2023-04-09T18:26:11.342Z,99772.47
2023-04-09T18:28:38.207Z,99778.84
2023-04-09T18:31:06.354Z,99776.63
2023-04-09T18:33:35.160Z,99778.00
2023-04-09T18:36:03.032Z,99783.97
2023-04-09T18:38:30.751Z,99782.66
2023-04-09T18:40:58.065Z,99781.81
2023-04-09T18:43:26.024Z,99790.59
2023-04-09T18:45:52.995Z,99793.59
2023-04-09T18:48:19.966Z,99789.00
2023-04-09T18:50:47.255Z,99785.91
2023-04-09T18:53:14.604Z,99790.06
2023-04-09T18:55:41.359Z,99800.59
2023-04-09T18:58:11.832Z,99803.94
2023-04-09T19:00:42.667Z,99804.13
2023-04-09T19:03:09.881Z,99815.09
2023-04-09T19:05:36.660Z,99801.31
2023-04-09T19:08:07.915Z,99806.25
2023-04-09T19:10:34.822Z,99808.31
2023-04-09T19:13:03.093Z,99810.44
2023-04-09T19:15:30.026Z,99813.38
2023-04-09T19:17:57.675Z,99815.00
2023-04-09T19:20:25.046Z,99811.84
2023-04-09T19:22:57.222Z,99823.44
2023-04-09T19:25:24.600Z,99817.66
2023-04-09T19:27:53.916Z,99817.09
2023-04-09T19:30:21.924Z,99816.88
2023-04-09T19:32:49.298Z,99816.66
2023-04-09T19:35:17.260Z,99819.44
2023-04-09T19:37:45.279Z,99818.28
2023-04-09T19:40:12.652Z,99813.03
2023-04-09T19:42:40.310Z,99820.38
2023-04-09T19:45:08.931Z,99819.69
2023-04-09T19:47:35.877Z,99819.94
2023-04-09T19:50:02.767Z,99812.31
2023-04-09T19:52:30.013Z,99812.91
2023-04-09T19:54:58.086Z,99813.75
2023-04-09T19:57:27.168Z,99807.78
2023-04-09T19:59:54.755Z,99802.78
2023-04-09T20:02:22.143Z,99804.44
2023-04-09T20:04:49.214Z,99801.53
2023-04-09T20:07:16.370Z,99806.50
2023-04-09T20:09:47.289Z,99804.41
2023-04-09T20:12:17.547Z,99799.81
2023-04-09T20:14:45.010Z,99805.78
2023-04-09T20:17:12.403Z,99798.88
2023-04-09T20:19:39.816Z,99795.16
2023-04-09T20:22:06.794Z,99798.38
2023-04-09T20:24:35.838Z,99799.41
2023-04-09T20:27:02.685Z,99803.28
2023-04-09T20:29:29.674Z,99801.06
2023-04-09T20:31:56.406Z,99796.63
2023-04-09T20:34:27.067Z,99799.88
2023-04-09T20:36:57.066Z,99800.81
2023-04-09T20:39:27.088Z,99793.53
2023-04-09T20:41:55.411Z,99799.34
2023-04-09T20:44:22.900Z,99805.66
2023-04-09T20:46:49.866Z,99799.47
2023-04-09T20:49:16.894Z,99803.19
2023-04-09T20:51:43.919Z,99796.69
2023-04-09T20:54:11.033Z,99790.41
2023-04-09T20:56:37.962Z,99790.19
2023-04-09T20:59:05.330Z,99780.44
2023-04-09T21:01:33.793Z,99785.06
2023-04-09T21:04:04.316Z,99783.72
2023-04-09T21:06:31.390Z,99781.25
2023-04-09T21:08:59.693Z,99791.06
2023-04-09T21:11:26.828Z,99783.22
2023-04-09T21:13:55.062Z,99785.69
2023-04-09T21:16:23.525Z,99787.59
2023-04-09T21:18:51.043Z,99783.84
2023-04-09T21:21:18.249Z,99789.84
2023-04-09T21:23:44.959Z,99789.44
2023-04-09T21:26:12.238Z,99792.00
2023-04-09T21:28:39.285Z,99795.47
2023-04-09T21:31:06.454Z,99793.97
2023-04-09T21:33:33.508Z,99795.88
2023-04-09T21:36:01.553Z,99798.69
2023-04-09T21:38:28.635Z,99794.50
2023-04-09T21:40:55.631Z,99801.28
2023-04-09T21:43:22.605Z,99797.44
2023-04-09T21:45:50.398Z,99794.31
2023-04-09T21:48:17.151Z,99795.56
2023-04-09T21:50:44.092Z,99796.81
2023-04-09T21:53:11.417Z,99794.81
2023-04-09T21:55:39.471Z,99790.97
2023-04-09T21:58:07.450Z,99799.09
2023-04-09T22:00:34.490Z,99802.88
2023-04-09T22:03:02.140Z,99810.00
2023-04-09T22:05:29.799Z,99797.66
2023-04-09T22:07:57.201Z,99808.94
2023-04-09T22:10:24.753Z,99793.06
2023-04-09T22:12:51.737Z,99803.09
2023-04-09T22:15:20.566Z,99809.97
2023-04-09T22:17:47.905Z,99807.47
2023-04-09T22:20:14.900Z,99811.63
2023-04-09T22:22:42.880Z,99821.22
2023-04-09T22:25:12.655Z,99818.28
2023-04-09T22:27:39.662Z,99814.84
2023-04-09T22:30:07.859Z,99821.84
2023-04-09T22:32:35.191Z,99822.59
2023-04-09T22:35:02.647Z,99815.94
2023-04-09T22:37:29.838Z,99822.22
2023-04-09T22:39:56.766Z,99810.53
2023-04-09T22:42:25.566Z,99813.28
2023-04-09T22:44:54.052Z,99814.03
2023-04-09T22:47:20.840Z,99819.63
2023-04-09T22:49:47.808Z,99818.22
2023-04-09T22:52:15.031Z,99823.81
2023-04-09T22:54:43.731Z,99823.91
2023-04-09T22:57:10.651Z,99818.84
2023-04-09T22:59:40.737Z,99821.88
2023-04-09T23:02:08.419Z,99814.75
2023-04-09T23:04:35.390Z,99819.97
2023-04-09T23:07:02.844Z,99823.13
2023-04-09T23:09:31.193Z,99834.06
2023-04-09T23:11:58.631Z,99827.97
2023-04-09T23:14:25.483Z,99822.63
2023-04-09T23:16:52.244Z,99834.91
2023-04-09T23:19:19.465Z,99831.84
2023-04-09T23:21:46.229Z,99831.75
2023-04-09T23:24:13.267Z,99824.84
2023-04-09T23:26:40.062Z,99826.44
2023-04-09T23:29:07.175Z,99824.88
2023-04-09T23:31:34.170Z,99817.59
2023-04-09T23:34:01.374Z,99820.13
2023-04-09T23:36:29.297Z,99817.72
2023-04-09T23:38:56.454Z,99820.41
2023-04-09T23:41:23.873Z,99817.91
2023-04-09T23:43:51.444Z,99820.22
2023-04-09T23:46:18.517Z,99806.38
2023-04-09T23:48:45.429Z,99808.78
2023-04-09T23:51:18.135Z,99812.50
2023-04-09T23:53:45.706Z,99811.66
2023-04-09T23:56:14.437Z,99808.31
2023-04-09T23:58:41.530Z,99808.31
